Time;durP1;ratioP1;P1;durP2;ratioP2;P2;SDS_P1;SDS_P2;PMS_P1;PMS_P2;Temp;Humidity;BMP_temperature;BMP_pressure;BME280_temperature;BME280_humidity;BME280_pressure;Samples;Min_cycle;Max_cycle;Signal;HPM_P1;HPM_P2
2020/12/21 00:02:15;;;;;;;7.93;3.92;;;102.80;2150.40;;;;;;5099248;28;20024;-66
2020/12/21 00:04:41;;;;;;;6.30;3.95;;;102.80;2176.00;;;;;;5100321;28;20302;-69
2020/12/21 00:07:07;;;;;;;7.72;4.88;;;102.80;2176.00;;;;;;5100310;28;20437;-67
2020/12/21 00:09:33;;;;;;;6.80;4.07;;;103.00;2150.40;;;;;;5099457;28;20120;-69
2020/12/21 00:11:59;;;;;;;8.05;4.72;;;103.00;2150.40;;;;;;5100251;28;20024;-67
2020/12/21 00:14:25;;;;;;;9.27;5.15;;;103.00;2176.00;;;;;;5100120;28;20303;-67
2020/12/21 00:16:53;;;;;;;8.98;3.80;;;103.00;2150.40;;;;;;5099826;28;20032;-69
2020/12/21 00:19:22;;;;;;;8.02;4.60;;;103.10;2150.40;;;;;;5100029;28;20036;-69
2020/12/21 00:21:51;;;;;;;7.97;4.80;;;103.10;2150.40;;;;;;5099999;28;20020;-68
2020/12/21 00:24:18;;;;;;;9.43;5.30;;;103.10;2150.40;;;;;;5099417;28;20034;-67
2020/12/21 00:26:49;;;;;;;10.27;5.47;;;103.10;2150.40;;;;;;5099655;28;20023;-68
2020/12/21 00:29:16;;;;;;;7.70;4.47;;;103.00;2176.00;;;;;;5099342;28;20035;-69
2020/12/21 00:31:43;;;;;;;11.80;6.07;;;103.10;2150.40;;;;;;5099791;28;20028;-68
2020/12/21 00:34:09;;;;;;;10.73;5.45;;;103.10;2150.40;;;;;;5099230;28;20050;-69
2020/12/21 00:36:44;;;;;;;9.00;4.85;;;103.10;2150.40;;;;;;5098809;28;20024;-67
2020/12/21 00:39:10;;;;;;;10.07;5.75;;;103.20;2150.40;;;;;;5099642;28;20097;-68
2020/12/21 00:41:37;;;;;;;7.22;4.22;;;103.20;2150.40;;;;;;5099638;28;20084;-68
2020/12/21 00:44:03;;;;;;;9.48;4.95;;;103.20;2124.80;;;;;;5099053;28;20020;-66
2020/12/21 00:46:31;;;;;;;7.97;4.60;;;103.10;2150.40;;;;;;5099560;28;20031;-66
2020/12/21 00:48:58;;;;;;;8.32;4.55;;;103.20;2150.40;;;;;;5099214;28;20028;-67
2020/12/21 00:51:24;;;;;;;8.18;4.35;;;103.20;2150.40;;;;;;5099142;28;20390;-68
2020/12/21 00:53:50;;;;;;;9.43;4.68;;;103.00;2150.40;;;;;;5098896;28;20109;-67
2020/12/21 00:56:18;;;;;;;8.18;4.68;;;103.10;2150.40;;;;;;5099017;28;20350;-67
2020/12/21 00:58:45;;;;;;;10.43;5.07;;;103.00;2176.00;;;;;;5098713;28;20031;-67
2020/12/21 01:01:14;;;;;;;8.20;4.45;;;103.10;2150.40;;;;;;5098884;28;20077;-69
2020/12/21 01:03:40;;;;;;;8.20;4.35;;;103.20;2150.40;;;;;;5098949;28;20054;-67
2020/12/21 01:06:06;;;;;;;10.45;4.38;;;103.10;2150.40;;;;;;5098921;28;20028;-68
2020/12/21 01:08:32;;;;;;;8.20;4.50;;;103.20;2150.40;;;;;;5099098;28;20024;-67
2020/12/21 01:10:58;;;;;;;6.28;3.88;;;103.30;2124.80;;;;;;5098206;28;20031;-68
2020/12/21 01:13:24;;;;;;;7.05;4.40;;;103.20;2124.80;;;;;;5098471;28;20024;-71
2020/12/21 01:15:50;;;;;;;7.43;4.30;;;103.30;2124.80;;;;;;5098660;28;20344;-70
2020/12/21 01:18:16;;;;;;;8.10;4.63;;;103.20;2150.40;;;;;;5098309;28;20031;-68
2020/12/21 01:20:42;;;;;;;9.15;3.80;;;103.30;2124.80;;;;;;5098906;28;20055;-67
2020/12/21 01:23:08;;;;;;;7.93;4.32;;;103.30;2124.80;;;;;;5098280;28;20490;-67
2020/12/21 01:25:34;;;;;;;7.45;4.65;;;128.10;2150.40;;;;;;5098193;28;20028;-68
2020/12/21 01:28:00;;;;;;;7.97;4.00;;;128.10;2150.40;;;;;;5098729;28;20197;-67
2020/12/21 01:30:27;;;;;;;6.80;3.80;;;128.00;2150.40;;;;;;5098177;28;20020;-68
2020/12/21 01:32:52;;;;;;;7.88;4.57;;;128.30;2124.80;;;;;;5097819;28;20372;-68
2020/12/21 01:35:18;;;;;;;6.53;3.85;;;128.10;2124.80;;;;;;5098309;28;20024;-68
2020/12/21 01:37:44;;;;;;;6.85;4.13;;;128.10;2124.80;;;;;;5097690;28;20139;-67
2020/12/21 01:40:12;;;;;;;8.05;3.58;;;128.20;2124.80;;;;;;5098042;28;20028;-68
2020/12/21 01:42:38;;;;;;;6.78;4.00;;;128.20;2124.80;;;;;;5098483;28;20320;-69
2020/12/21 01:45:08;;;;;;;7.47;4.25;;;128.30;2099.20;;;;;;5097889;28;20023;-68
2020/12/21 01:47:37;;;;;;;5.90;3.03;;;128.20;2124.80;;;;;;5097024;28;20402;-67
2020/12/21 01:50:04;;;;;;;5.55;2.90;;;128.10;2124.80;;;;;;5097789;28;20024;-67
2020/12/21 01:52:31;;;;;;;7.97;3.55;;;128.10;2124.80;;;;;;5098289;28;20111;-68
2020/12/21 01:54:57;;;;;;;5.32;3.33;;;128.20;2099.20;;;;;;5097440;28;20386;-67
2020/12/21 01:57:22;;;;;;;6.95;3.88;;;128.30;2099.20;;;;;;5097928;28;20052;-68
2020/12/21 01:59:48;;;;;;;6.50;3.00;;;128.30;2099.20;;;;;;5097814;28;20039;-69
2020/12/21 02:02:14;;;;;;;6.22;3.67;;;128.20;2124.80;;;;;;5097861;28;20348;-69
2020/12/21 02:04:40;;;;;;;5.90;3.65;;;128.20;2124.80;;;;;;5097543;28;20092;-66
2020/12/21 02:07:07;;;;;;;7.53;3.38;;;128.10;2124.80;;;;;;5097188;28;20107;-69
2020/12/21 02:09:34;;;;;;;4.97;2.63;;;128.10;2124.80;;;;;;5098038;28;20024;-68
2020/12/21 02:12:00;;;;;;;9.68;4.80;;;103.30;2124.80;;;;;;5097953;28;20031;-67
2020/12/21 02:14:25;;;;;;;8.75;4.40;;;103.30;2124.80;;;;;;5097712;28;20072;-67
2020/12/21 02:16:51;;;;;;;7.20;4.18;;;128.10;2150.40;;;;;;5097905;28;20099;-68
2020/12/21 02:19:18;;;;;;;6.78;3.70;;;128.10;2124.80;;;;;;5097564;28;20035;-68
2020/12/21 02:21:45;;;;;;;7.50;3.90;;;128.10;2124.80;;;;;;5097222;28;20035;-67
2020/12/21 02:24:11;;;;;;;7.60;4.25;;;128.10;2124.80;;;;;;5097493;28;20032;-70
2020/12/21 02:26:36;;;;;;;7.90;4.35;;;128.10;2150.40;;;;;;5097508;28;20024;-67
2020/12/21 02:29:02;;;;;;;7.35;4.00;;;128.00;2150.40;;;;;;5097214;28;20409;-69
2020/12/21 02:31:28;;;;;;;6.60;3.60;;;103.20;2150.40;;;;;;5097744;28;20023;-67
2020/12/21 02:33:54;;;;;;;7.10;3.83;;;103.20;2150.40;;;;;;5097189;28;20052;-68
2020/12/21 02:36:19;;;;;;;8.32;4.30;;;103.20;2124.80;;;;;;5096834;28;20103;-67
2020/12/21 02:38:46;;;;;;;6.43;3.63;;;103.10;2150.40;;;;;;5097529;28;20044;-68
2020/12/21 02:41:19;;;;;;;5.32;3.50;;;103.30;2150.40;;;;;;5096786;28;20028;-67
2020/12/21 02:43:45;;;;;;;6.95;3.80;;;103.20;2124.80;;;;;;5097590;28;20310;-67
2020/12/21 02:46:15;;;;;;;8.40;4.25;;;103.10;2124.80;;;;;;5097014;28;20032;-67
2020/12/21 02:48:41;;;;;;;7.47;3.88;;;103.10;2150.40;;;;;;5097267;28;20422;-67
2020/12/21 02:51:07;;;;;;;5.78;3.65;;;103.10;2176.00;;;;;;5097040;28;20028;-68
2020/12/21 02:53:33;;;;;;;7.32;4.25;;;103.30;2124.80;;;;;;5096993;28;20020;-68
2020/12/21 02:55:59;;;;;;;8.90;4.82;;;128.10;2124.80;;;;;;5096926;28;20383;-68
2020/12/21 02:58:25;;;;;;;6.35;4.13;;;103.20;2124.80;;;;;;5097443;28;20042;-68
2020/12/21 03:00:51;;;;;;;7.32;4.15;;;103.20;2124.80;;;;;;5100106;28;20027;-68
2020/12/21 03:03:17;;;;;;;11.43;3.83;;;103.00;2150.40;;;;;;5101050;28;20031;-69
2020/12/21 03:05:43;;;;;;;5.95;3.40;;;102.90;2176.00;;;;;;5101481;28;20082;-67
2020/12/21 03:08:10;;;;;;;8.57;3.65;;;103.00;2150.40;;;;;;5101118;28;20071;-68
2020/12/21 03:10:38;;;;;;;6.30;3.67;;;102.70;2176.00;;;;;;5101151;28;20024;-68
2020/12/21 03:13:04;;;;;;;7.75;4.22;;;102.60;2201.60;;;;;;5101345;28;20020;-67
2020/12/21 03:15:30;;;;;;;6.35;3.72;;;102.70;2201.60;;;;;;5101018;28;20075;-67
2020/12/21 03:17:56;;;;;;;7.47;4.28;;;102.80;2201.60;;;;;;5100908;28;20032;-68
2020/12/21 03:20:22;;;;;;;8.02;4.22;;;103.00;2176.00;;;;;;5101260;28;20024;-68
2020/12/21 03:22:48;;;;;;;5.95;3.53;;;102.80;2176.00;;;;;;5100633;28;20020;-67
2020/12/21 03:25:15;;;;;;;9.23;4.30;;;102.80;2176.00;;;;;;5100306;28;20040;-67
2020/12/21 03:27:41;;;;;;;7.75;4.22;;;102.60;2201.60;;;;;;5100815;28;20034;-68
2020/12/21 03:30:08;;;;;;;7.43;4.28;;;102.70;2176.00;;;;;;5100402;28;20024;-67
2020/12/21 03:32:34;;;;;;;6.28;3.80;;;102.80;2176.00;;;;;;5100203;28;20333;-68
2020/12/21 03:35:00;;;;;;;7.95;5.00;;;102.80;2176.00;;;;;;5096782;28;20039;-68
2020/12/21 03:37:26;;;;;;;7.47;4.40;;;102.90;2176.00;;;;;;5080156;28;20372;-69
2020/12/21 03:39:52;;;;;;;10.95;4.25;;;102.80;2176.00;;;;;;5085481;28;20039;-68
2020/12/21 03:42:18;;;;;;;8.27;4.25;;;102.70;2176.00;;;;;;5093591;28;20042;-69
2020/12/21 03:44:43;;;;;;;7.43;4.22;;;102.60;2176.00;;;;;;5078638;28;20082;-67
2020/12/21 03:47:10;;;;;;;8.13;4.68;;;102.50;2201.60;;;;;;5079103;28;20108;-67
2020/12/21 03:49:35;;;;;;;7.38;4.20;;;102.50;2201.60;;;;;;5080310;28;20398;-69
2020/12/21 03:52:01;;;;;;;8.10;3.80;;;102.50;2201.60;;;;;;5079460;28;20074;-67
2020/12/21 03:54:27;;;;;;;9.75;4.53;;;102.40;2201.60;;;;;;5080029;28;20071;-69
2020/12/21 03:56:53;;;;;;;7.47;4.20;;;102.60;2201.60;;;;;;5079989;28;20116;-67
2020/12/21 03:59:19;;;;;;;8.95;4.18;;;102.50;2201.60;;;;;;5079537;28;20036;-68
2020/12/21 04:01:44;;;;;;;7.38;4.70;;;102.40;2227.20;;;;;;5079848;28;20063;-68
2020/12/21 04:04:10;;;;;;;6.45;3.95;;;102.40;2227.20;;;;;;5080107;28;20029;-69
2020/12/21 04:06:37;;;;;;;5.68;3.47;;;102.40;2227.20;;;;;;5079822;28;20462;-69
2020/12/21 04:09:04;;;;;;;7.55;4.07;;;102.50;2201.60;;;;;;5080033;28;20407;-68
2020/12/21 04:11:30;;;;;;;7.40;3.72;;;102.50;2176.00;;;;;;5079215;28;20078;-67
2020/12/21 04:13:56;;;;;;;7.10;4.03;;;102.50;2201.60;;;;;;5079147;28;20437;-67
2020/12/21 04:16:21;;;;;;;5.88;3.30;;;102.70;2176.00;;;;;;5079654;28;20024;-67
2020/12/21 04:18:47;;;;;;;5.85;3.55;;;102.80;2176.00;;;;;;5079166;28;20105;-66
2020/12/21 04:21:14;;;;;;;5.47;3.10;;;102.60;2201.60;;;;;;5079551;28;20361;-67
2020/12/21 04:23:43;;;;;;;5.80;3.00;;;102.50;2201.60;;;;;;5079806;28;20325;-68
2020/12/21 04:26:09;;;;;;;6.20;3.38;;;102.50;2227.20;;;;;;5079202;28;20025;-68
2020/12/21 04:28:38;;;;;;;5.05;2.97;;;102.80;2176.00;;;;;;5079160;28;20439;-68
2020/12/21 04:31:05;;;;;;;5.40;2.53;;;102.90;2176.00;;;;;;5079351;28;20027;-68
2020/12/21 04:33:31;;;;;;;5.65;2.90;;;102.90;2150.40;;;;;;5079606;28;20024;-68
2020/12/21 04:35:57;;;;;;;5.35;3.22;;;102.80;2150.40;;;;;;5078735;28;20414;-69
2020/12/21 04:38:23;;;;;;;4.65;2.95;;;102.80;2176.00;;;;;;5079088;28;20322;-66
2020/12/21 04:40:54;;;;;;;5.28;2.85;;;102.80;2176.00;;;;;;5079427;28;20028;-67
2020/12/21 04:43:21;;;;;;;5.93;2.92;;;102.50;2201.60;;;;;;5079156;28;20090;-68
2020/12/21 04:45:50;;;;;;;7.00;3.40;;;102.60;2201.60;;;;;;5077522;28;20414;-68
2020/12/21 04:48:15;;;;;;;;;;;102.80;2201.60;;;;;;5079223;28;20033;-67
2020/12/21 04:50:42;;;;;;;6.68;3.35;;;103.00;2176.00;;;;;;5079254;28;19957;-67
2020/12/21 04:53:11;;;;;;;5.75;3.47;;;102.90;2176.00;;;;;;5078652;28;20115;-68
2020/12/21 04:55:37;;;;;;;7.18;3.83;;;102.90;2201.60;;;;;;5078619;28;20031;-68
2020/12/21 04:58:04;;;;;;;5.70;3.05;;;102.90;2176.00;;;;;;5078478;28;20119;-68
2020/12/21 05:00:34;;;;;;;5.00;3.17;;;103.00;2176.00;;;;;;5078792;28;20193;-67
2020/12/21 05:03:00;;;;;;;5.22;3.22;;;103.10;2176.00;;;;;;5078451;28;20326;-69
2020/12/21 05:05:46;;;;;;;5.93;2.92;;;103.10;2176.00;;;;;;5078707;28;20017;-66
2020/12/21 05:08:12;;;;;;;5.07;3.28;;;103.00;2150.40;;;;;;5078404;28;20047;-67
2020/12/21 05:10:54;;;;;;;5.82;2.95;;;103.10;2176.00;;;;;;5078312;28;20032;-69
2020/12/21 05:13:20;;;;;;;5.05;3.10;;;103.00;2176.00;;;;;;5078850;28;20028;-69
2020/12/21 05:15:53;;;;;;;5.30;2.67;;;103.00;2176.00;;;;;;5078467;28;20028;-66
2020/12/21 05:18:26;;;;;;;11.57;6.38;;;103.00;2176.00;;;;;;5078238;28;20036;-67
2020/12/21 05:21:04;;;;;;;7.35;4.22;;;102.90;2176.00;;;;;;5078660;28;20020;-67
2020/12/21 05:23:31;;;;;;;6.38;3.22;;;102.70;2201.60;;;;;;5076981;28;20462;-67
2020/12/21 05:26:01;;;;;;;5.80;3.80;;;102.40;2227.20;;;;;;5078235;28;20035;-67
2020/12/21 05:28:29;;;;;;;5.70;3.00;;;102.40;2227.20;;;;;;5078574;28;20086;-67
2020/12/21 05:30:59;;;;;;;6.63;4.00;;;102.40;2227.20;;;;;;5077853;28;20112;-67
2020/12/21 05:33:25;;;;;;;6.20;3.22;;;102.60;2227.20;;;;;;5077854;28;20027;-68
2020/12/21 05:35:51;;;;;;;7.55;5.32;;;102.70;2227.20;;;;;;5078029;28;20039;-69
2020/12/21 05:38:25;;;;;;;6.43;3.83;;;102.90;2201.60;;;;;;5077753;28;20084;-67
2020/12/21 05:40:52;;;;;;;4.93;3.67;;;103.00;2201.60;;;;;;5078263;28;20360;-68
2020/12/21 05:43:29;;;;;;;6.03;3.60;;;103.00;2201.60;;;;;;5077635;28;20024;-67
2020/12/21 05:46:10;;;;;;;5.10;3.33;;;103.00;2201.60;;;;;;5077929;28;20043;-67
2020/12/21 05:48:40;;;;;;;5.45;3.47;;;102.80;2227.20;;;;;;5077832;28;20033;-66
2020/12/21 05:51:08;;;;;;;5.38;3.65;;;102.90;2201.60;;;;;;5077797;28;20115;-68
2020/12/21 05:53:39;;;;;;;5.35;3.30;;;103.00;2201.60;;;;;;5077442;28;20020;-68
2020/12/21 05:56:06;;;;;;;6.20;3.60;;;103.00;2176.00;;;;;;5078031;28;20027;-67
2020/12/21 05:58:34;;;;;;;6.35;3.40;;;102.90;2201.60;;;;;;5077582;28;20115;-67
2020/12/21 06:01:05;;;;;;;21.33;12.15;;;102.70;2227.20;;;;;;5077578;28;20024;-67
2020/12/21 06:03:45;;;;;;;25.80;15.77;;;102.80;2201.60;;;;;;5077855;28;20036;-71
2020/12/21 06:06:22;;;;;;;11.57;7.05;;;102.90;2201.60;;;;;;5077364;28;20028;-69
2020/12/21 06:08:53;;;;;;;9.60;7.05;;;102.90;2201.60;;;;;;5077850;28;20115;-68
2020/12/21 06:11:19;;;;;;;9.48;7.40;;;102.90;2201.60;;;;;;5077471;28;20028;-67
2020/12/21 06:13:57;;;;;;;10.20;6.25;;;102.90;2201.60;;;;;;5077210;28;20329;-68
2020/12/21 06:16:28;;;;;;;7.68;5.00;;;102.90;2201.60;;;;;;5077772;28;20020;-67
2020/12/21 06:19:04;;;;;;;198.88;88.63;;;102.90;2201.60;;;;;;5077113;28;20458;-67
2020/12/21 06:21:31;;;;;;;29.35;16.70;;;103.00;2201.60;;;;;;5077675;28;20028;-70
2020/12/21 06:23:57;;;;;;;264.52;144.73;;;103.00;2201.60;;;;;;5077643;28;20543;-67
2020/12/21 06:26:33;;;;;;;84.05;63.40;;;103.00;2201.60;;;;;;5077034;28;20146;-67
2020/12/21 06:29:01;;;;;;;28.25;23.67;;;102.90;2227.20;;;;;;5076715;28;20387;-67
2020/12/21 06:31:38;;;;;;;19.17;17.17;;;102.90;2227.20;;;;;;5077215;28;20078;-66
2020/12/21 06:34:04;;;;;;;12.38;8.98;;;103.20;2201.60;;;;;;5077178;28;20406;-66
2020/12/21 06:36:34;;;;;;;8.15;5.43;;;103.30;2176.00;;;;;;5077212;28;20398;-67
2020/12/21 06:39:00;;;;;;;5.90;3.90;;;103.30;2176.00;;;;;;5077040;28;20057;-67
2020/12/21 06:41:27;;;;;;;7.72;5.82;;;103.20;2176.00;;;;;;5075639;28;20056;-68
2020/12/21 06:44:01;;;;;;;10.23;6.07;;;103.30;2176.00;;;;;;5077428;28;20060;-68
2020/12/21 06:46:28;;;;;;;9.77;5.22;;;103.30;2150.40;;;;;;5077398;28;20020;-67
2020/12/21 06:49:13;;;;;;;7.75;5.00;;;103.30;2176.00;;;;;;5077100;28;20036;-67
2020/12/21 06:51:43;;;;;;;7.65;5.15;;;128.00;2201.60;;;;;;5077078;28;20032;-66
2020/12/21 06:54:10;;;;;;;9.80;6.57;;;128.00;2176.00;;;;;;5077069;28;20024;-67
2020/12/21 06:56:37;;;;;;;7.93;6.07;;;128.10;2176.00;;;;;;5077028;28;20024;-66
2020/12/21 06:59:11;;;;;;;15.48;11.95;;;128.10;2176.00;;;;;;5076627;28;20131;-66
2020/12/21 07:01:39;;;;;;;9.95;7.55;;;128.10;2176.00;;;;;;5077023;28;20055;-66
2020/12/21 07:04:11;;;;;;;14.60;8.30;;;128.20;2176.00;;;;;;5076879;28;20028;-68
2020/12/21 07:06:38;;;;;;;8.80;5.45;;;128.30;2176.00;;;;;;5076411;28;20337;-67
2020/12/21 07:09:04;;;;;;;11.52;8.90;;;128.20;2176.00;;;;;;5076645;28;20070;-66
2020/12/21 07:11:30;;;;;;;11.30;7.97;;;128.20;2176.00;;;;;;5076853;28;20052;-67
2020/12/21 07:13:57;;;;;;;10.65;8.48;;;128.20;2176.00;;;;;;5077122;28;20145;-67
2020/12/21 07:16:23;;;;;;;18.17;15.52;;;128.20;2176.00;;;;;;5076487;28;20028;-67
2020/12/21 07:18:49;;;;;;;19.02;14.63;;;128.30;2176.00;;;;;;5077035;28;20032;-68
2020/12/21 07:21:16;;;;;;;29.48;22.48;;;128.20;2201.60;;;;;;5077043;28;20078;-67
2020/12/21 07:23:44;;;;;;;24.92;15.90;;;128.30;2201.60;;;;;;5076490;28;20025;-67
2020/12/21 07:26:12;;;;;;;31.15;24.80;;;128.20;2201.60;;;;;;5077014;28;20406;-67
2020/12/21 07:28:38;;;;;;;54.03;38.57;;;128.50;2176.00;;;;;;5076731;28;20029;-67
2020/12/21 07:31:09;;;;;;;33.78;23.70;;;128.50;2176.00;;;;;;5076326;28;20031;-67
2020/12/21 07:33:47;;;;;;;40.10;24.17;;;128.70;2150.40;;;;;;5076962;28;20391;-66
2020/12/21 07:36:13;;;;;;;16.85;10.02;;;128.80;2124.80;;;;;;5076428;28;20033;-67
2020/12/21 07:38:39;;;;;;;10.90;7.05;;;128.80;2124.80;;;;;;5076441;28;20396;-66
2020/12/21 07:41:05;;;;;;;16.77;13.15;;;128.70;2124.80;;;;;;5076577;28;20330;-67
2020/12/21 07:43:44;;;;;;;12.55;9.13;;;128.70;2124.80;;;;;;5076541;28;20085;-66
2020/12/21 07:46:21;;;;;;;9.55;6.07;;;128.80;2124.80;;;;;;5078188;28;20024;-68
2020/12/21 07:48:48;;;;;;;9.40;6.20;;;128.80;2124.80;;;;;;5080471;28;20029;-68
2020/12/21 07:51:18;;;;;;;9.18;6.45;;;128.80;2124.80;;;;;;5079817;28;20433;-67
2020/12/21 07:53:45;;;;;;;17.58;11.90;;;128.80;2124.80;;;;;;5079768;28;20024;-67
2020/12/21 07:56:18;;;;;;;27.02;20.95;;;128.90;2124.80;;;;;;5080022;28;20074;-68
2020/12/21 07:58:44;;;;;;;24.17;16.75;;;128.90;2124.80;;;;;;5079368;28;20056;-67
2020/12/21 08:01:10;;;;;;;56.25;34.60;;;128.80;2124.80;;;;;;5080182;28;20093;-66
2020/12/21 08:03:40;;;;;;;23.95;17.65;;;128.90;2124.80;;;;;;5080124;28;20372;-68
2020/12/21 08:06:08;;;;;;;16.80;12.43;;;153.60;2124.80;;;;;;5079608;28;20028;-67
2020/12/21 08:08:35;;;;;;;22.35;16.48;;;153.60;2099.20;;;;;;5079658;28;20035;-67
2020/12/21 08:11:01;;;;;;;40.75;22.90;;;153.70;2099.20;;;;;;5078953;28;20032;-67
2020/12/21 08:13:27;;;;;;;16.77;10.45;;;153.80;2099.20;;;;;;5079698;28;20318;-66
2020/12/21 08:16:09;;;;;;;10.85;6.68;;;153.90;2073.60;;;;;;5079363;28;20025;-67
2020/12/21 08:18:36;;;;;;;14.15;8.38;;;153.70;2099.20;;;;;;5079327;28;20055;-68
2020/12/21 08:21:03;;;;;;;15.15;8.35;;;153.80;2073.60;;;;;;5079256;28;20485;-67
2020/12/21 08:23:31;;;;;;;13.15;7.72;;;153.70;2099.20;;;;;;5079295;28;20032;-67
2020/12/21 08:25:57;;;;;;;16.67;10.20;;;153.80;2073.60;;;;;;5079467;28;20047;-66
2020/12/21 08:28:30;;;;;;;13.43;9.30;;;153.80;2073.60;;;;;;5079133;28;20082;-68
2020/12/21 08:31:07;;;;;;;12.38;7.63;;;153.80;2073.60;;;;;;5079963;28;20326;-67
2020/12/21 08:33:34;;;;;;;16.35;9.95;;;153.80;2073.60;;;;;;5079367;28;20024;-68
2020/12/21 08:36:17;;;;;;;16.48;8.77;;;153.70;2099.20;;;;;;5079233;28;20103;-67
2020/12/21 08:38:43;;;;;;;10.32;6.68;;;153.80;2073.60;;;;;;5079432;28;20129;-67
2020/12/21 08:41:09;;;;;;;11.73;6.40;;;153.90;2073.60;;;;;;5079229;28;20295;-67
2020/12/21 08:43:35;;;;;;;13.52;6.85;;;154.10;2048.00;;;;;;5079731;28;20032;-67
2020/12/21 08:46:14;;;;;;;12.30;7.25;;;154.00;2073.60;;;;;;5079094;28;20029;-68
2020/12/21 08:48:42;;;;;;;10.23;6.60;;;154.00;2073.60;;;;;;5084615;28;20157;-69
2020/12/21 08:51:09;;;;;;;10.20;6.22;;;154.20;2048.00;;;;;;5088051;28;20099;-68
2020/12/21 08:53:36;;;;;;;11.52;6.40;;;154.30;2022.40;;;;;;5085793;28;20025;-69
2020/12/21 08:56:11;;;;;;;10.32;6.40;;;154.30;2048.00;;;;;;5079682;28;20032;-68
2020/12/21 08:58:37;;;;;;;11.80;6.75;;;154.40;2022.40;;;;;;5077180;28;20426;-68
2020/12/21 09:01:07;;;;;;;15.75;9.95;;;154.40;2022.40;;;;;;5076877;28;20051;-69
2020/12/21 09:03:34;;;;;;;16.15;10.73;;;154.50;2022.40;;;;;;5078113;28;20315;-68
2020/12/21 09:06:00;;;;;;;12.07;7.93;;;179.30;1996.80;;;;;;5078083;28;20048;-70
2020/12/21 09:08:27;;;;;;;11.73;7.32;;;179.40;1996.80;;;;;;5078324;28;20405;-69
2020/12/21 09:10:52;;;;;;;12.30;7.28;;;179.20;1996.80;;;;;;5078253;28;20024;-69
2020/12/21 09:13:18;;;;;;;14.35;9.32;;;179.30;1996.80;;;;;;5078212;28;20124;-67
2020/12/21 09:15:44;;;;;;;13.93;8.85;;;179.40;1971.20;;;;;;5077908;28;20021;-70
2020/12/21 09:18:10;;;;;;;15.38;9.15;;;179.50;1971.20;;;;;;5078025;28;20039;-69
2020/12/21 09:20:36;;;;;;;59.15;29.83;;;179.40;1971.20;;;;;;5078659;28;20082;-69
2020/12/21 09:23:01;;;;;;;15.88;9.50;;;179.70;1945.60;;;;;;5078358;28;20028;-69
2020/12/21 09:25:27;;;;;;;11.77;8.20;;;179.80;1945.60;;;;;;5078318;28;20074;-69
2020/12/21 09:27:53;;;;;;;14.13;8.45;;;179.90;1920.00;;;;;;5078279;28;20314;-70
2020/12/21 09:30:19;;;;;;;16.17;11.60;;;179.80;1945.60;;;;;;5077676;28;20065;-68
2020/12/21 09:32:44;;;;;;;13.35;8.15;;;180.00;1920.00;;;;;;5077867;28;20020;-68
2020/12/21 09:35:10;;;;;;;19.67;11.73;;;180.00;1920.00;;;;;;5077818;28;20476;-69
2020/12/21 09:37:36;;;;;;;13.27;7.88;;;204.80;1920.00;;;;;;5077777;28;20039;-69
2020/12/21 09:40:02;;;;;;;13.88;8.13;;;204.90;1894.40;;;;;;5078017;28;20036;-68
2020/12/21 09:42:28;;;;;;;19.95;12.30;;;204.80;1894.40;;;;;;5077962;28;20028;-68
2020/12/21 09:44:54;;;;;;;22.77;13.60;;;180.10;1894.40;;;;;;5078081;28;20027;-69
2020/12/21 09:47:20;;;;;;;18.08;11.25;;;180.10;1894.40;;;;;;5080847;28;20380;-67
2020/12/21 09:49:45;;;;;;;48.92;32.40;;;180.00;1920.00;;;;;;5097594;28;20016;-66
2020/12/21 09:52:11;;;;;;;23.00;16.80;;;180.10;1920.00;;;;;;5098043;28;20032;-64
2020/12/21 09:54:37;;;;;;;41.88;29.15;;;180.00;1920.00;;;;;;5093703;28;20027;-67
2020/12/21 09:57:03;;;;;;;38.08;25.42;;;180.10;1920.00;;;;;;5097116;28;20328;-64
2020/12/21 09:59:29;;;;;;;72.80;45.40;;;204.90;1894.40;;;;;;5090884;28;20089;-64
2020/12/21 10:01:54;;;;;;;69.22;47.30;;;205.10;1868.80;;;;;;5096599;28;20032;-66
2020/12/21 10:04:20;;;;;;;21.42;13.00;;;205.10;1894.40;;;;;;5096167;28;20020;-65
2020/12/21 10:06:50;;;;;;;13.23;8.10;;;205.00;1894.40;;;;;;5096407;28;20024;-66
2020/12/21 10:09:16;;;;;;;23.08;13.63;;;205.00;1868.80;;;;;;5097202;28;20073;-64
2020/12/21 10:11:42;;;;;;;38.22;25.70;;;205.10;1868.80;;;;;;5097049;28;20413;-64
2020/12/21 10:14:08;;;;;;;39.25;25.45;;;205.10;1868.80;;;;;;5097633;28;20020;-64
2020/12/21 10:16:34;;;;;;;22.50;14.63;;;205.20;1868.80;;;;;;5096111;28;20028;-65
2020/12/21 10:18:59;;;;;;;69.32;37.38;;;205.20;1894.40;;;;;;5097484;28;20363;-65
2020/12/21 10:21:25;;;;;;;135.13;66.95;;;205.30;1868.80;;;;;;5097442;28;20333;-64
2020/12/21 10:23:51;;;;;;;62.83;34.15;;;205.30;1868.80;;;;;;5097485;28;20046;-67
2020/12/21 10:26:17;;;;;;;182.70;84.40;;;205.40;1868.80;;;;;;5097421;28;20480;-68
2020/12/21 10:28:43;;;;;;;55.90;36.05;;;205.70;1817.60;;;;;;5095877;28;20031;-64
2020/12/21 10:31:08;;;;;;;70.20;50.25;;;205.50;1817.60;;;;;;5097066;28;20113;-65
2020/12/21 10:33:34;;;;;;;24.73;15.45;;;205.50;1843.20;;;;;;5097537;28;20055;-66
2020/12/21 10:36:00;;;;;;;62.92;43.95;;;205.30;1868.80;;;;;;5096932;28;20020;-66
2020/12/21 10:38:26;;;;;;;25.52;16.55;;;205.30;1868.80;;;;;;5097118;28;20048;-67
2020/12/21 10:40:51;;;;;;;35.65;21.40;;;205.20;1868.80;;;;;;5096958;28;20119;-67
2020/12/21 10:43:17;;;;;;;24.77;17.83;;;205.40;1843.20;;;;;;5097492;28;20466;-66
2020/12/21 10:45:43;;;;;;;20.35;14.52;;;205.60;1817.60;;;;;;5097046;28;20024;-67
2020/12/21 10:48:09;;;;;;;17.38;10.77;;;205.50;1817.60;;;;;;5096865;28;20066;-67
2020/12/21 10:50:35;;;;;;;126.30;68.13;;;205.50;1817.60;;;;;;5097419;28;20028;-66
2020/12/21 10:53:00;;;;;;;21.88;14.25;;;205.70;1792.00;;;;;;5097154;28;20039;-66
2020/12/21 10:55:26;;;;;;;20.48;13.90;;;205.60;1817.60;;;;;;5097036;28;20056;-66
2020/12/21 10:57:52;;;;;;;37.97;24.58;;;205.70;1817.60;;;;;;5096916;28;20024;-66
2020/12/21 11:00:18;;;;;;;74.03;42.95;;;205.70;1817.60;;;;;;5096401;28;20036;-68
2020/12/21 11:02:44;;;;;;;44.03;28.20;;;205.50;1843.20;;;;;;5096698;28;20051;-67
2020/12/21 11:05:10;;;;;;;59.90;38.92;;;205.40;1843.20;;;;;;5096773;28;20747;-66
2020/12/21 11:07:36;;;;;;;21.75;16.05;;;205.30;1843.20;;;;;;5094879;28;20394;-68
2020/12/21 11:10:05;;;;;;;17.65;11.70;;;205.20;1868.80;;;;;;5096194;28;20119;-68
2020/12/21 11:12:30;;;;;;;38.45;25.13;;;205.40;1843.20;;;;;;5095221;28;20020;-68
2020/12/21 11:14:56;;;;;;;23.25;13.45;;;205.40;1843.20;;;;;;5095959;28;20028;-66
2020/12/21 11:17:22;;;;;;;17.95;10.48;;;205.40;1817.60;;;;;;5096551;28;20102;-67
2020/12/21 11:19:48;;;;;;;17.30;10.68;;;205.40;1843.20;;;;;;5096660;28;20043;-67
2020/12/21 11:22:13;;;;;;;24.42;17.02;;;205.60;1817.60;;;;;;5099531;28;20333;-68
2020/12/21 11:24:39;;;;;;;58.58;36.72;;;230.50;1766.40;;;;;;5100889;28;20085;-67
2020/12/21 11:27:05;;;;;;;13.90;7.38;;;230.70;1766.40;;;;;;5099742;28;20030;-68
2020/12/21 11:29:31;;;;;;;41.72;22.45;;;230.80;1740.80;;;;;;5099970;28;20039;-67
2020/12/21 11:31:57;;;;;;;14.60;8.35;;;256.10;1689.60;;;;;;5100202;28;20432;-67
2020/12/21 11:34:23;;;;;;;17.05;9.48;;;231.10;1715.20;;;;;;5099769;28;20516;-67
2020/12/21 11:36:48;;;;;;;32.72;18.48;;;231.00;1740.80;;;;;;5099914;28;20110;-68
2020/12/21 11:39:15;;;;;;;16.33;10.52;;;230.70;1766.40;;;;;;5100333;28;20353;-67
2020/12/21 11:41:41;;;;;;;15.65;10.25;;;230.50;1766.40;;;;;;5099882;28;20341;-67
2020/12/21 11:44:07;;;;;;;13.95;9.68;;;230.50;1766.40;;;;;;5100452;28;20429;-68
2020/12/21 11:46:36;;;;;;;12.98;8.88;;;205.60;1792.00;;;;;;5100064;28;20054;-67
2020/12/21 11:49:03;;;;;;;16.50;8.80;;;205.60;1817.60;;;;;;5099488;28;20110;-67
2020/12/21 11:51:29;;;;;;;18.92;11.75;;;230.40;1792.00;;;;;;5099961;28;20410;-67
2020/12/21 11:53:55;;;;;;;15.80;8.93;;;205.70;1792.00;;;;;;5099624;28;20147;-68
2020/12/21 11:56:21;;;;;;;19.60;12.13;;;205.70;1817.60;;;;;;5100158;28;20151;-68
2020/12/21 11:58:48;;;;;;;16.77;11.63;;;230.40;1792.00;;;;;;5100125;28;20340;-67
2020/12/21 12:01:16;;;;;;;13.63;8.15;;;256.30;1689.60;;;;;;5100073;28;20476;-69
2020/12/21 12:03:42;;;;;;;85.57;37.07;;;256.40;1664.00;;;;;;5099395;28;20028;-68
2020/12/21 12:06:08;;;;;;;34.95;17.35;;;231.10;1689.60;;;;;;5099485;28;20108;-69
2020/12/21 12:08:34;;;;;;;29.00;13.65;;;230.80;1740.80;;;;;;5100198;28;20148;-66
2020/12/21 12:11:00;;;;;;;27.20;15.50;;;230.70;1766.40;;;;;;5099869;28;20024;-68
2020/12/21 12:13:26;;;;;;;40.40;24.55;;;230.70;1740.80;;;;;;5099528;28;20020;-68